sensor_id;sensor_type;location;lat;lon;timestamp;temperature;humidity
10300;DHT22;5195;48.562;9.192;2024-02-28T00:01:16;10.30;50.30
10300;DHT22;5195;48.562;9.192;2024-02-28T00:03:51;10.00;50.60
10300;DHT22;5195;48.562;9.192;2024-02-28T00:06:26;9.70;52.00
10300;DHT22;5195;48.562;9.192;2024-02-28T00:09:02;9.80;52.40
10300;DHT22;5195;48.562;9.192;2024-02-28T00:11:42;10.10;51.00
10300;DHT22;5195;48.562;9.192;2024-02-28T00:14:13;10.30;51.20
10300;DHT22;5195;48.562;9.192;2024-02-28T00:16:50;10.50;50.20
10300;DHT22;5195;48.562;9.192;2024-02-28T00:19:26;10.70;49.90
10300;DHT22;5195;48.562;9.192;2024-02-28T00:22:02;10.70;49.90
10300;DHT22;5195;48.562;9.192;2024-02-28T00:24:40;10.40;49.80
10300;DHT22;5195;48.562;9.192;2024-02-28T00:27:15;10.40;49.80
10300;DHT22;5195;48.562;9.192;2024-02-28T00:29:50;10.00;50.30
10300;DHT22;5195;48.562;9.192;2024-02-28T00:32:26;10.00;50.90
10300;DHT22;5195;48.562;9.192;2024-02-28T00:35:02;9.80;51.70
10300;DHT22;5195;48.562;9.192;2024-02-28T00:37:37;9.60;52.10
10300;DHT22;5195;48.562;9.192;2024-02-28T00:40:14;9.70;52.70
10300;DHT22;5195;48.562;9.192;2024-02-28T00:42:50;10.10;51.60
10300;DHT22;5195;48.562;9.192;2024-02-28T00:45:25;10.00;51.30
10300;DHT22;5195;48.562;9.192;2024-02-28T00:48:02;9.80;53.20
10300;DHT22;5195;48.562;9.192;2024-02-28T00:50:37;9.80;53.20
10300;DHT22;5195;48.562;9.192;2024-02-28T00:53:13;9.80;53.00
10300;DHT22;5195;48.562;9.192;2024-02-28T00:55:48;9.70;53.20
10300;DHT22;5195;48.562;9.192;2024-02-28T00:58:24;9.80;53.60
10300;DHT22;5195;48.562;9.192;2024-02-28T01:00:59;9.80;53.20
10300;DHT22;5195;48.562;9.192;2024-02-28T01:03:35;9.70;53.30
10300;DHT22;5195;48.562;9.192;2024-02-28T01:06:11;9.60;53.60
10300;DHT22;5195;48.562;9.192;2024-02-28T01:08:46;9.80;53.80
10300;DHT22;5195;48.562;9.192;2024-02-28T01:11:22;9.90;53.50
10300;DHT22;5195;48.562;9.192;2024-02-28T01:13:57;10.10;52.60
10300;DHT22;5195;48.562;9.192;2024-02-28T01:16:33;10.10;52.10
10300;DHT22;5195;48.562;9.192;2024-02-28T01:19:09;10.20;51.90
10300;DHT22;5195;48.562;9.192;2024-02-28T01:21:44;10.20;51.60
10300;DHT22;5195;48.562;9.192;2024-02-28T01:24:20;10.00;51.70
10300;DHT22;5195;48.562;9.192;2024-02-28T01:26:55;10.20;51.70
10300;DHT22;5195;48.562;9.192;2024-02-28T01:29:32;10.00;51.60
10300;DHT22;5195;48.562;9.192;2024-02-28T01:32:08;10.10;51.80
10300;DHT22;5195;48.562;9.192;2024-02-28T01:34:44;10.10;51.70
10300;DHT22;5195;48.562;9.192;2024-02-28T01:37:20;10.00;51.80
10300;DHT22;5195;48.562;9.192;2024-02-28T01:39:56;10.00;51.80
10300;DHT22;5195;48.562;9.192;2024-02-28T01:42:31;10.10;51.90
10300;DHT22;5195;48.562;9.192;2024-02-28T01:45:07;10.50;51.60
10300;DHT22;5195;48.562;9.192;2024-02-28T01:47:43;10.50;51.30
10300;DHT22;5195;48.562;9.192;2024-02-28T01:50:18;10.20;51.50
10300;DHT22;5195;48.562;9.192;2024-02-28T01:52:54;10.00;51.70
10300;DHT22;5195;48.562;9.192;2024-02-28T01:55:29;10.20;51.60
10300;DHT22;5195;48.562;9.192;2024-02-28T01:58:07;10.00;52.20
10300;DHT22;5195;48.562;9.192;2024-02-28T02:00:43;10.00;51.50
10300;DHT22;5195;48.562;9.192;2024-02-28T02:03:18;10.20;51.50
10300;DHT22;5195;48.562;9.192;2024-02-28T02:05:54;10.50;50.90
10300;DHT22;5195;48.562;9.192;2024-02-28T02:08:29;10.80;50.30
10300;DHT22;5195;48.562;9.192;2024-02-28T02:11:05;11.00;49.90
10300;DHT22;5195;48.562;9.192;2024-02-28T02:13:51;11.20;49.60
10300;DHT22;5195;48.562;9.192;2024-02-28T02:16:28;11.00;49.70
10300;DHT22;5195;48.562;9.192;2024-02-28T02:19:03;11.00;49.70
10300;DHT22;5195;48.562;9.192;2024-02-28T02:21:49;10.80;49.80
10300;DHT22;5195;48.562;9.192;2024-02-28T02:24:21;10.50;50.20
10300;DHT22;5195;48.562;9.192;2024-02-28T02:26:58;10.50;50.40
10300;DHT22;5195;48.562;9.192;2024-02-28T02:29:35;10.30;50.70
10300;DHT22;5195;48.562;9.192;2024-02-28T02:32:10;10.30;50.70
10300;DHT22;5195;48.562;9.192;2024-02-28T02:34:46;10.40;51.00
10300;DHT22;5195;48.562;9.192;2024-02-28T02:37:24;11.00;50.30
10300;DHT22;5195;48.562;9.192;2024-02-28T02:39:59;11.00;50.20
10300;DHT22;5195;48.562;9.192;2024-02-28T02:42:35;10.90;50.00
10300;DHT22;5195;48.562;9.192;2024-02-28T02:45:12;10.90;50.40
10300;DHT22;5195;48.562;9.192;2024-02-28T02:47:50;10.80;50.40
10300;DHT22;5195;48.562;9.192;2024-02-28T02:50:26;10.30;51.00
10300;DHT22;5195;48.562;9.192;2024-02-28T02:53:02;10.20;50.90
10300;DHT22;5195;48.562;9.192;2024-02-28T02:55:37;10.00;51.20
10300;DHT22;5195;48.562;9.192;2024-02-28T02:58:13;10.10;51.90
10300;DHT22;5195;48.562;9.192;2024-02-28T03:00:51;10.00;51.80
10300;DHT22;5195;48.562;9.192;2024-02-28T03:03:28;10.10;51.60
10300;DHT22;5195;48.562;9.192;2024-02-28T03:06:05;9.80;53.20
10300;DHT22;5195;48.562;9.192;2024-02-28T03:08:41;9.80;52.90
10300;DHT22;5195;48.562;9.192;2024-02-28T03:11:17;10.00;52.20
10300;DHT22;5195;48.562;9.192;2024-02-28T03:13:53;10.70;50.90
10300;DHT22;5195;48.562;9.192;2024-02-28T03:16:29;10.70;50.90
10300;DHT22;5195;48.562;9.192;2024-02-28T03:19:05;10.60;50.90
10300;DHT22;5195;48.562;9.192;2024-02-28T03:21:40;10.60;50.90
10300;DHT22;5195;48.562;9.192;2024-02-28T03:24:18;10.50;50.80
10300;DHT22;5195;48.562;9.192;2024-02-28T03:26:54;10.10;51.70
10300;DHT22;5195;48.562;9.192;2024-02-28T03:29:31;10.10;51.40
10300;DHT22;5195;48.562;9.192;2024-02-28T03:32:06;9.90;52.60
10300;DHT22;5195;48.562;9.192;2024-02-28T03:34:42;10.10;51.80
10300;DHT22;5195;48.562;9.192;2024-02-28T03:37:18;10.20;51.50
10300;DHT22;5195;48.562;9.192;2024-02-28T03:39:53;10.00;51.50
10300;DHT22;5195;48.562;9.192;2024-02-28T03:42:29;9.90;52.70
10300;DHT22;5195;48.562;9.192;2024-02-28T03:45:05;9.60;52.90
10300;DHT22;5195;48.562;9.192;2024-02-28T03:47:41;9.60;52.90
10300;DHT22;5195;48.562;9.192;2024-02-28T03:50:18;9.50;53.10
10300;DHT22;5195;48.562;9.192;2024-02-28T03:52:54;9.70;53.80
10300;DHT22;5195;48.562;9.192;2024-02-28T03:55:30;9.70;53.30
10300;DHT22;5195;48.562;9.192;2024-02-28T03:58:05;10.10;51.90
10300;DHT22;5195;48.562;9.192;2024-02-28T04:00:41;10.40;51.30
10300;DHT22;5195;48.562;9.192;2024-02-28T04:03:17;10.40;51.00
10300;DHT22;5195;48.562;9.192;2024-02-28T04:05:52;10.10;51.20
10300;DHT22;5195;48.562;9.192;2024-02-28T04:08:28;9.80;52.50
10300;DHT22;5195;48.562;9.192;2024-02-28T04:11:03;9.70;52.70
10300;DHT22;5195;48.562;9.192;2024-02-28T04:13:39;9.80;53.00
10300;DHT22;5195;48.562;9.192;2024-02-28T04:16:15;10.00;51.90
10300;DHT22;5195;48.562;9.192;2024-02-28T04:18:52;10.00;51.80
10300;DHT22;5195;48.562;9.192;2024-02-28T04:21:29;10.10;52.30
10300;DHT22;5195;48.562;9.192;2024-02-28T04:24:05;10.10;51.70
10300;DHT22;5195;48.562;9.192;2024-02-28T04:26:41;10.00;51.50
10300;DHT22;5195;48.562;9.192;2024-02-28T04:29:17;9.80;52.80
10300;DHT22;5195;48.562;9.192;2024-02-28T04:31:55;9.90;53.00
10300;DHT22;5195;48.562;9.192;2024-02-28T04:34:33;10.20;51.30
10300;DHT22;5195;48.562;9.192;2024-02-28T04:37:08;10.20;51.30
10300;DHT22;5195;48.562;9.192;2024-02-28T04:39:44;10.30;51.40
10300;DHT22;5195;48.562;9.192;2024-02-28T04:42:23;10.50;51.00
10300;DHT22;5195;48.562;9.192;2024-02-28T04:44:58;10.40;50.90
10300;DHT22;5195;48.562;9.192;2024-02-28T04:47:34;10.10;51.20
10300;DHT22;5195;48.562;9.192;2024-02-28T04:50:10;10.20;51.50
10300;DHT22;5195;48.562;9.192;2024-02-28T04:52:45;10.40;51.10
10300;DHT22;5195;48.562;9.192;2024-02-28T04:55:21;10.30;51.00
10300;DHT22;5195;48.562;9.192;2024-02-28T04:57:56;10.40;51.10
10300;DHT22;5195;48.562;9.192;2024-02-28T05:00:32;10.30;50.90
10300;DHT22;5195;48.562;9.192;2024-02-28T05:03:09;9.90;52.00
10300;DHT22;5195;48.562;9.192;2024-02-28T05:05:45;9.80;52.90
10300;DHT22;5195;48.562;9.192;2024-02-28T05:08:21;9.80;52.80
10300;DHT22;5195;48.562;9.192;2024-02-28T05:10:57;9.90;52.90
10300;DHT22;5195;48.562;9.192;2024-02-28T05:13:34;9.90;52.90
10300;DHT22;5195;48.562;9.192;2024-02-28T05:16:15;9.90;52.80
10300;DHT22;5195;48.562;9.192;2024-02-28T05:18:51;10.00;51.90
10300;DHT22;5195;48.562;9.192;2024-02-28T05:21:27;9.90;52.60
10300;DHT22;5195;48.562;9.192;2024-02-28T05:24:02;10.00;51.80
10300;DHT22;5195;48.562;9.192;2024-02-28T05:26:38;9.90;52.60
10300;DHT22;5195;48.562;9.192;2024-02-28T05:29:13;10.00;51.60
10300;DHT22;5195;48.562;9.192;2024-02-28T05:31:49;10.20;51.10
10300;DHT22;5195;48.562;9.192;2024-02-28T05:34:25;10.10;51.00
10300;DHT22;5195;48.562;9.192;2024-02-28T05:37:00;10.10;51.30
10300;DHT22;5195;48.562;9.192;2024-02-28T05:39:36;10.00;51.20
10300;DHT22;5195;48.562;9.192;2024-02-28T05:42:12;10.00;51.30
10300;DHT22;5195;48.562;9.192;2024-02-28T05:44:48;10.20;51.00
10300;DHT22;5195;48.562;9.192;2024-02-28T05:47:23;10.40;50.80
10300;DHT22;5195;48.562;9.192;2024-02-28T05:49:59;10.00;51.10
10300;DHT22;5195;48.562;9.192;2024-02-28T05:52:35;9.90;52.00
10300;DHT22;5195;48.562;9.192;2024-02-28T05:55:10;9.70;52.40
10300;DHT22;5195;48.562;9.192;2024-02-28T05:57:46;9.80;52.80
10300;DHT22;5195;48.562;9.192;2024-02-28T06:00:23;9.80;52.50
10300;DHT22;5195;48.562;9.192;2024-02-28T06:02:58;9.90;52.50
10300;DHT22;5195;48.562;9.192;2024-02-28T06:05:35;9.90;52.50
10300;DHT22;5195;48.562;9.192;2024-02-28T06:08:10;9.90;52.50
10300;DHT22;5195;48.562;9.192;2024-02-28T06:10:47;9.60;52.50
10300;DHT22;5195;48.562;9.192;2024-02-28T06:13:25;9.60;52.50
10300;DHT22;5195;48.562;9.192;2024-02-28T06:16:03;10.00;51.40
10300;DHT22;5195;48.562;9.192;2024-02-28T06:18:40;10.00;51.40
10300;DHT22;5195;48.562;9.192;2024-02-28T06:21:15;10.20;50.70
10300;DHT22;5195;48.562;9.192;2024-02-28T06:23:52;10.40;50.40
10300;DHT22;5195;48.562;9.192;2024-02-28T06:26:27;10.20;50.40
10300;DHT22;5195;48.562;9.192;2024-02-28T06:29:04;10.20;50.70
10300;DHT22;5195;48.562;9.192;2024-02-28T06:31:40;10.30;50.50
10300;DHT22;5195;48.562;9.192;2024-02-28T06:34:15;10.20;50.50
10300;DHT22;5195;48.562;9.192;2024-02-28T06:36:51;10.10;50.60
10300;DHT22;5195;48.562;9.192;2024-02-28T06:39:26;10.30;50.10
10300;DHT22;5195;48.562;9.192;2024-02-28T06:42:02;10.20;50.10
10300;DHT22;5195;48.562;9.192;2024-02-28T06:44:38;10.10;50.40
10300;DHT22;5195;48.562;9.192;2024-02-28T06:47:13;10.30;50.40
10300;DHT22;5195;48.562;9.192;2024-02-28T06:49:49;10.20;50.50
10300;DHT22;5195;48.562;9.192;2024-02-28T06:52:25;10.40;50.50
10300;DHT22;5195;48.562;9.192;2024-02-28T06:55:01;10.30;50.40
10300;DHT22;5195;48.562;9.192;2024-02-28T06:57:37;10.20;50.80
10300;DHT22;5195;48.562;9.192;2024-02-28T07:00:12;10.20;50.50
10300;DHT22;5195;48.562;9.192;2024-02-28T07:02:48;10.00;50.50
10300;DHT22;5195;48.562;9.192;2024-02-28T07:05:23;9.70;51.80
10300;DHT22;5195;48.562;9.192;2024-02-28T07:08:00;9.80;52.00
10300;DHT22;5195;48.562;9.192;2024-02-28T07:10:35;9.50;52.20
10300;DHT22;5195;48.562;9.192;2024-02-28T07:13:11;9.50;52.20
10300;DHT22;5195;48.562;9.192;2024-02-28T07:15:47;9.70;52.20
10300;DHT22;5195;48.562;9.192;2024-02-28T07:18:23;9.70;52.10
10300;DHT22;5195;48.562;9.192;2024-02-28T07:20:58;9.50;52.30
10300;DHT22;5195;48.562;9.192;2024-02-28T07:23:33;9.30;52.50
10300;DHT22;5195;48.562;9.192;2024-02-28T07:26:14;9.10;52.90
10300;DHT22;5195;48.562;9.192;2024-02-28T07:28:45;9.10;52.90
10300;DHT22;5195;48.562;9.192;2024-02-28T07:31:27;9.00;53.00
10300;DHT22;5195;48.562;9.192;2024-02-28T07:34:03;9.00;53.10
10300;DHT22;5195;48.562;9.192;2024-02-28T07:36:38;8.90;53.10
10300;DHT22;5195;48.562;9.192;2024-02-28T07:39:14;9.20;53.20
10300;DHT22;5195;48.562;9.192;2024-02-28T07:41:50;9.30;52.80
10300;DHT22;5195;48.562;9.192;2024-02-28T07:44:26;9.30;52.80
10300;DHT22;5195;48.562;9.192;2024-02-28T07:47:02;9.20;52.90
10300;DHT22;5195;48.562;9.192;2024-02-28T07:49:38;9.50;52.70
10300;DHT22;5195;48.562;9.192;2024-02-28T07:52:17;9.90;51.70
10300;DHT22;5195;48.562;9.192;2024-02-28T07:54:52;10.00;50.40
10300;DHT22;5195;48.562;9.192;2024-02-28T07:57:28;9.80;51.50
10300;DHT22;5195;48.562;9.192;2024-02-28T08:00:04;9.60;51.80
10300;DHT22;5195;48.562;9.192;2024-02-28T08:02:39;9.50;52.00
10300;DHT22;5195;48.562;9.192;2024-02-28T08:05:15;9.70;52.10
10300;DHT22;5195;48.562;9.192;2024-02-28T08:07:50;9.80;51.80
10300;DHT22;5195;48.562;9.192;2024-02-28T08:10:26;10.00;50.40
10300;DHT22;5195;48.562;9.192;2024-02-28T08:13:01;10.00;50.10
10300;DHT22;5195;48.562;9.192;2024-02-28T08:15:37;9.90;51.40
10300;DHT22;5195;48.562;9.192;2024-02-28T08:18:14;10.00;50.20
10300;DHT22;5195;48.562;9.192;2024-02-28T08:20:50;9.90;51.90
10300;DHT22;5195;48.562;9.192;2024-02-28T08:23:26;9.90;51.40
10300;DHT22;5195;48.562;9.192;2024-02-28T08:26:01;10.10;50.40
10300;DHT22;5195;48.562;9.192;2024-02-28T08:28:37;10.10;50.10
10300;DHT22;5195;48.562;9.192;2024-02-28T08:31:13;10.10;50.90
10300;DHT22;5195;48.562;9.192;2024-02-28T08:33:49;10.10;50.30
10300;DHT22;5195;48.562;9.192;2024-02-28T08:36:24;10.40;49.90
10300;DHT22;5195;48.562;9.192;2024-02-28T08:39:01;10.80;50.20
10300;DHT22;5195;48.562;9.192;2024-02-28T08:41:37;11.00;48.90
10300;DHT22;5195;48.562;9.192;2024-02-28T08:44:12;10.90;48.80
10300;DHT22;5195;48.562;9.192;2024-02-28T08:46:48;10.70;49.30
10300;DHT22;5195;48.562;9.192;2024-02-28T08:49:25;10.80;49.00
10300;DHT22;5195;48.562;9.192;2024-02-28T08:52:01;10.70;48.90
10300;DHT22;5195;48.562;9.192;2024-02-28T08:54:37;10.80;48.50
10300;DHT22;5195;48.562;9.192;2024-02-28T08:57:13;10.70;48.40
10300;DHT22;5195;48.562;9.192;2024-02-28T08:59:49;10.80;48.60
10300;DHT22;5195;48.562;9.192;2024-02-28T09:02:24;11.00;48.10
10300;DHT22;5195;48.562;9.192;2024-02-28T09:05:00;10.90;48.10
10300;DHT22;5195;48.562;9.192;2024-02-28T09:07:35;10.90;48.10
10300;DHT22;5195;48.562;9.192;2024-02-28T09:10:11;11.10;47.90
10300;DHT22;5195;48.562;9.192;2024-02-28T09:13:00;11.30;47.60
10300;DHT22;5195;48.562;9.192;2024-02-28T09:15:36;11.20;47.40
10300;DHT22;5195;48.562;9.192;2024-02-28T09:18:12;11.20;48.00
10300;DHT22;5195;48.562;9.192;2024-02-28T09:20:47;10.90;47.80
10300;DHT22;5195;48.562;9.192;2024-02-28T09:23:23;11.00;48.00
10300;DHT22;5195;48.562;9.192;2024-02-28T09:26:02;10.90;48.00
10300;DHT22;5195;48.562;9.192;2024-02-28T09:28:36;10.70;48.30
10300;DHT22;5195;48.562;9.192;2024-02-28T09:31:11;10.50;48.60
10300;DHT22;5195;48.562;9.192;2024-02-28T09:33:48;10.90;47.90
10300;DHT22;5195;48.562;9.192;2024-02-28T09:36:23;10.90;47.80
10300;DHT22;5195;48.562;9.192;2024-02-28T09:38:59;11.10;47.30
10300;DHT22;5195;48.562;9.192;2024-02-28T09:41:35;11.50;46.50
10300;DHT22;5195;48.562;9.192;2024-02-28T09:44:12;11.40;46.40
10300;DHT22;5195;48.562;9.192;2024-02-28T09:46:52;11.20;46.60
10300;DHT22;5195;48.562;9.192;2024-02-28T09:49:28;11.10;46.70
10300;DHT22;5195;48.562;9.192;2024-02-28T09:52:03;11.30;46.60
10300;DHT22;5195;48.562;9.192;2024-02-28T09:54:40;11.20;46.80
10300;DHT22;5195;48.562;9.192;2024-02-28T09:57:15;11.10;46.70
10300;DHT22;5195;48.562;9.192;2024-02-28T09:59:51;11.30;46.40
10300;DHT22;5195;48.562;9.192;2024-02-28T10:02:27;11.50;45.70
10300;DHT22;5195;48.562;9.192;2024-02-28T10:05:03;11.80;45.40
10300;DHT22;5195;48.562;9.192;2024-02-28T10:07:38;11.80;45.40
10300;DHT22;5195;48.562;9.192;2024-02-28T10:10:14;11.60;45.60
10300;DHT22;5195;48.562;9.192;2024-02-28T10:12:51;11.50;46.00
10300;DHT22;5195;48.562;9.192;2024-02-28T10:15:27;11.70;45.60
10300;DHT22;5195;48.562;9.192;2024-02-28T10:18:02;11.80;45.40
10300;DHT22;5195;48.562;9.192;2024-02-28T10:20:38;11.70;45.80
10300;DHT22;5195;48.562;9.192;2024-02-28T10:23:13;11.40;46.10
10300;DHT22;5195;48.562;9.192;2024-02-28T10:25:49;11.10;46.50
10300;DHT22;5195;48.562;9.192;2024-02-28T10:28:25;11.20;46.60
10300;DHT22;5195;48.562;9.192;2024-02-28T10:31:00;11.20;46.60
10300;DHT22;5195;48.562;9.192;2024-02-28T10:33:36;11.30;46.10
10300;DHT22;5195;48.562;9.192;2024-02-28T10:36:12;11.40;45.70
10300;DHT22;5195;48.562;9.192;2024-02-28T10:38:48;11.40;45.60
10300;DHT22;5195;48.562;9.192;2024-02-28T10:41:26;11.10;46.00
10300;DHT22;5195;48.562;9.192;2024-02-28T10:44:02;10.80;46.60
10300;DHT22;5195;48.562;9.192;2024-02-28T10:46:38;10.60;47.00
10300;DHT22;5195;48.562;9.192;2024-02-28T10:49:13;10.80;47.30
10300;DHT22;5195;48.562;9.192;2024-02-28T10:51:49;11.10;46.70
10300;DHT22;5195;48.562;9.192;2024-02-28T10:54:24;11.40;46.30
10300;DHT22;5195;48.562;9.192;2024-02-28T10:57:00;11.60;45.80
10300;DHT22;5195;48.562;9.192;2024-02-28T10:59:37;11.30;47.00
10300;DHT22;5195;48.562;9.192;2024-02-28T11:02:12;11.30;46.40
10300;DHT22;5195;48.562;9.192;2024-02-28T11:04:47;11.40;46.40
10300;DHT22;5195;48.562;9.192;2024-02-28T11:07:24;11.60;45.70
10300;DHT22;5195;48.562;9.192;2024-02-28T11:10:03;11.80;45.30
10300;DHT22;5195;48.562;9.192;2024-02-28T11:12:34;12.00;45.90
10300;DHT22;5195;48.562;9.192;2024-02-28T11:15:15;11.90;45.40
10300;DHT22;5195;48.562;9.192;2024-02-28T11:17:45;12.00;45.10
10300;DHT22;5195;48.562;9.192;2024-02-28T11:20:21;11.80;45.00
10300;DHT22;5195;48.562;9.192;2024-02-28T11:22:57;11.80;44.40
10300;DHT22;5195;48.562;9.192;2024-02-28T11:25:32;11.80;44.80
10300;DHT22;5195;48.562;9.192;2024-02-28T11:28:09;11.50;45.20
10300;DHT22;5195;48.562;9.192;2024-02-28T11:30:45;11.60;45.40
10300;DHT22;5195;48.562;9.192;2024-02-28T11:33:21;12.10;44.60
10300;DHT22;5195;48.562;9.192;2024-02-28T11:35:57;12.10;45.30
10300;DHT22;5195;48.562;9.192;2024-02-28T11:38:34;12.00;44.50
10300;DHT22;5195;48.562;9.192;2024-02-28T11:41:08;11.80;44.90
10300;DHT22;5195;48.562;9.192;2024-02-28T11:43:43;11.80;44.80
10300;DHT22;5195;48.562;9.192;2024-02-28T11:46:19;11.80;45.00
10300;DHT22;5195;48.562;9.192;2024-02-28T11:48:54;11.60;45.30
10300;DHT22;5195;48.562;9.192;2024-02-28T11:51:30;11.60;45.30
10300;DHT22;5195;48.562;9.192;2024-02-28T11:54:07;11.30;45.40
10300;DHT22;5195;48.562;9.192;2024-02-28T11:56:42;11.30;45.60
10300;DHT22;5195;48.562;9.192;2024-02-28T11:59:18;11.10;45.80
10300;DHT22;5195;48.562;9.192;2024-02-28T12:01:55;10.80;46.40
10300;DHT22;5195;48.562;9.192;2024-02-28T12:04:31;10.80;46.40
10300;DHT22;5195;48.562;9.192;2024-02-28T12:07:07;10.70;46.60
10300;DHT22;5195;48.562;9.192;2024-02-28T12:09:42;10.60;46.90
10300;DHT22;5195;48.562;9.192;2024-02-28T12:12:18;10.90;47.20
10300;DHT22;5195;48.562;9.192;2024-02-28T12:14:57;11.30;46.70
10300;DHT22;5195;48.562;9.192;2024-02-28T12:17:29;11.30;46.20
10300;DHT22;5195;48.562;9.192;2024-02-28T12:20:05;11.40;46.20
10300;DHT22;5195;48.562;9.192;2024-02-28T12:22:41;11.10;46.40
10300;DHT22;5195;48.562;9.192;2024-02-28T12:25:17;11.10;46.40
10300;DHT22;5195;48.562;9.192;2024-02-28T12:27:52;11.20;46.40
10300;DHT22;5195;48.562;9.192;2024-02-28T12:30:39;11.20;46.30
10300;DHT22;5195;48.562;9.192;2024-02-28T12:33:10;11.10;46.60
10300;DHT22;5195;48.562;9.192;2024-02-28T12:35:45;10.90;46.80
10300;DHT22;5195;48.562;9.192;2024-02-28T12:38:21;10.70;47.00
10300;DHT22;5195;48.562;9.192;2024-02-28T12:40:57;10.60;47.20
10300;DHT22;5195;48.562;9.192;2024-02-28T12:43:33;10.80;47.90
10300;DHT22;5195;48.562;9.192;2024-02-28T12:46:08;10.70;47.70
10300;DHT22;5195;48.562;9.192;2024-02-28T12:48:44;10.80;47.50
10300;DHT22;5195;48.562;9.192;2024-02-28T12:51:34;10.70;47.50
10300;DHT22;5195;48.562;9.192;2024-02-28T12:53:55;11.00;47.50
10300;DHT22;5195;48.562;9.192;2024-02-28T12:56:31;10.90;47.20
10300;DHT22;5195;48.562;9.192;2024-02-28T12:59:06;10.80;48.00
10300;DHT22;5195;48.562;9.192;2024-02-28T13:01:45;10.90;47.20
10300;DHT22;5195;48.562;9.192;2024-02-28T13:04:21;10.90;47.00
10300;DHT22;5195;48.562;9.192;2024-02-28T13:06:56;10.70;47.20
10300;DHT22;5195;48.562;9.192;2024-02-28T13:09:32;10.80;47.10
10300;DHT22;5195;48.562;9.192;2024-02-28T13:12:07;11.10;46.80
10300;DHT22;5195;48.562;9.192;2024-02-28T13:14:43;11.00;46.60
10300;DHT22;5195;48.562;9.192;2024-02-28T13:17:19;10.70;46.90
10300;DHT22;5195;48.562;9.192;2024-02-28T13:19:54;10.90;47.50
10300;DHT22;5195;48.562;9.192;2024-02-28T13:22:30;11.20;47.00
10300;DHT22;5195;48.562;9.192;2024-02-28T13:25:06;11.10;46.70
10300;DHT22;5195;48.562;9.192;2024-02-28T13:27:41;11.20;47.00
10300;DHT22;5195;48.562;9.192;2024-02-28T13:30:17;11.10;46.90
10300;DHT22;5195;48.562;9.192;2024-02-28T13:32:52;11.20;46.80
10300;DHT22;5195;48.562;9.192;2024-02-28T13:35:28;11.10;46.70
10300;DHT22;5195;48.562;9.192;2024-02-28T13:38:03;11.20;46.80
10300;DHT22;5195;48.562;9.192;2024-02-28T13:40:39;11.10;46.70
10300;DHT22;5195;48.562;9.192;2024-02-28T13:43:16;10.90;47.00
10300;DHT22;5195;48.562;9.192;2024-02-28T13:45:51;10.70;47.20
10300;DHT22;5195;48.562;9.192;2024-02-28T13:48:27;10.50;47.30
10300;DHT22;5195;48.562;9.192;2024-02-28T13:51:03;10.40;47.50
10300;DHT22;5195;48.562;9.192;2024-02-28T13:53:38;10.30;47.60
10300;DHT22;5195;48.562;9.192;2024-02-28T13:56:14;10.50;47.40
10300;DHT22;5195;48.562;9.192;2024-02-28T13:58:51;10.60;47.30
10300;DHT22;5195;48.562;9.192;2024-02-28T14:01:26;10.80;47.50
10300;DHT22;5195;48.562;9.192;2024-02-28T14:04:02;10.80;46.90
10300;DHT22;5195;48.562;9.192;2024-02-28T14:06:37;10.60;47.00
10300;DHT22;5195;48.562;9.192;2024-02-28T14:09:14;10.80;47.20
10300;DHT22;5195;48.562;9.192;2024-02-28T14:11:51;10.80;47.10
10300;DHT22;5195;48.562;9.192;2024-02-28T14:14:27;10.90;46.90
10300;DHT22;5195;48.562;9.192;2024-02-28T14:17:02;11.00;46.80
10300;DHT22;5195;48.562;9.192;2024-02-28T14:19:38;11.10;46.50
10300;DHT22;5195;48.562;9.192;2024-02-28T14:22:14;11.00;46.10
10300;DHT22;5195;48.562;9.192;2024-02-28T14:24:50;10.60;46.90
10300;DHT22;5195;48.562;9.192;2024-02-28T14:27:26;10.60;46.90
10300;DHT22;5195;48.562;9.192;2024-02-28T14:30:01;10.80;47.10
10300;DHT22;5195;48.562;9.192;2024-02-28T14:32:37;10.80;46.80
10300;DHT22;5195;48.562;9.192;2024-02-28T14:35:13;11.00;47.10
10300;DHT22;5195;48.562;9.192;2024-02-28T14:37:49;11.00;47.10
10300;DHT22;5195;48.562;9.192;2024-02-28T14:40:24;11.20;46.50
10300;DHT22;5195;48.562;9.192;2024-02-28T14:43:00;11.20;46.50
10300;DHT22;5195;48.562;9.192;2024-02-28T14:45:35;11.30;46.60
10300;DHT22;5195;48.562;9.192;2024-02-28T14:48:12;11.50;46.30
10300;DHT22;5195;48.562;9.192;2024-02-28T14:50:47;11.50;46.20
10300;DHT22;5195;48.562;9.192;2024-02-28T14:53:23;11.60;45.70
10300;DHT22;5195;48.562;9.192;2024-02-28T14:55:58;11.50;45.80
10300;DHT22;5195;48.562;9.192;2024-02-28T14:58:34;11.60;46.50
10300;DHT22;5195;48.562;9.192;2024-02-28T15:01:10;11.60;46.20
10300;DHT22;5195;48.562;9.192;2024-02-28T15:03:45;11.30;46.20
10300;DHT22;5195;48.562;9.192;2024-02-28T15:06:22;11.30;46.30
10300;DHT22;5195;48.562;9.192;2024-02-28T15:08:57;11.30;46.20
10300;DHT22;5195;48.562;9.192;2024-02-28T15:11:33;11.10;46.50
10300;DHT22;5195;48.562;9.192;2024-02-28T15:14:09;10.80;46.90
10300;DHT22;5195;48.562;9.192;2024-02-28T15:16:46;10.80;46.90
10300;DHT22;5195;48.562;9.192;2024-02-28T15:19:21;10.60;46.90
10300;DHT22;5195;48.562;9.192;2024-02-28T15:21:57;10.90;47.50
10300;DHT22;5195;48.562;9.192;2024-02-28T15:24:33;10.90;47.20
10300;DHT22;5195;48.562;9.192;2024-02-28T15:27:08;11.10;47.40
10300;DHT22;5195;48.562;9.192;2024-02-28T15:29:44;11.20;47.20
10300;DHT22;5195;48.562;9.192;2024-02-28T15:32:20;11.20;46.20
10300;DHT22;5195;48.562;9.192;2024-02-28T15:34:56;11.20;46.20
10300;DHT22;5195;48.562;9.192;2024-02-28T15:37:31;11.00;46.60
10300;DHT22;5195;48.562;9.192;2024-02-28T15:40:07;10.90;46.90
10300;DHT22;5195;48.562;9.192;2024-02-28T15:42:43;11.00;46.70
10300;DHT22;5195;48.562;9.192;2024-02-28T15:45:18;10.90;46.50
10300;DHT22;5195;48.562;9.192;2024-02-28T15:47:54;11.00;46.70
10300;DHT22;5195;48.562;9.192;2024-02-28T15:50:30;10.70;46.70
10300;DHT22;5195;48.562;9.192;2024-02-28T15:53:07;10.70;46.70
10300;DHT22;5195;48.562;9.192;2024-02-28T15:55:43;10.50;46.80
10300;DHT22;5195;48.562;9.192;2024-02-28T15:58:18;10.30;47.30
10300;DHT22;5195;48.562;9.192;2024-02-28T16:00:54;10.60;48.20
10300;DHT22;5195;48.562;9.192;2024-02-28T16:03:29;10.90;47.10
10300;DHT22;5195;48.562;9.192;2024-02-28T16:06:08;11.30;47.10
10300;DHT22;5195;48.562;9.192;2024-02-28T16:08:44;11.20;46.80
10300;DHT22;5195;48.562;9.192;2024-02-28T16:11:19;11.00;47.20
10300;DHT22;5195;48.562;9.192;2024-02-28T16:13:55;10.60;47.50
10300;DHT22;5195;48.562;9.192;2024-02-28T16:16:31;10.60;47.60
10300;DHT22;5195;48.562;9.192;2024-02-28T16:19:07;10.90;48.30
10300;DHT22;5195;48.562;9.192;2024-02-28T16:21:47;11.20;47.30
10300;DHT22;5195;48.562;9.192;2024-02-28T16:24:23;11.60;47.00
10300;DHT22;5195;48.562;9.192;2024-02-28T16:26:58;11.50;46.60
10300;DHT22;5195;48.562;9.192;2024-02-28T16:29:35;11.50;46.30
10300;DHT22;5195;48.562;9.192;2024-02-28T16:32:10;11.30;46.10
10300;DHT22;5195;48.562;9.192;2024-02-28T16:34:47;11.10;46.50
10300;DHT22;5195;48.562;9.192;2024-02-28T16:37:23;10.70;46.50
10300;DHT22;5195;48.562;9.192;2024-02-28T16:39:58;10.80;47.50
10300;DHT22;5195;48.562;9.192;2024-02-28T16:42:34;10.80;47.30
10300;DHT22;5195;48.562;9.192;2024-02-28T16:45:10;10.90;47.00